Toronto Express — ZCET5 — position and weather

sailwx.info

Track history (hours):
 
Tides and Currents Weather Stations Pressure Air Temp Water Temp Dewpoint Dewpoint Depression Visibility Wind Speed Wind Dir Waves Ship Positions

Toronto Express

Last reported at 2017-Oct-17 09:10 UTC. Time now 2017-Oct-17 20:58 UTC.
Position N 45°36' W 073°30'.

Length 294 m; draft 10.6 m.

Type: Cargo ship. MMSI: 310749000.

Date/timePositionNaut miles runAvg speedWind from/ knotsBaromVisibWave heightAir tempDewpointWater temp
2017-Oct-17 09:10N 45°36' W 073°30'1 6.8
2017-Oct-17 09:00N 45°38' W 073°30'5 7.7
2017-Oct-17 08:23N 45°42' W 073°27'3 9.1
2017-Oct-17 08:00N 45°45' W 073°24'9 9.5
2017-Oct-17 07:02N 45°52' W 073°16'010.4
2017-Oct-17 07:00N 45°52' W 073°15'  
2017-Oct-10 05:27N 49°43' W 006°23'817.6
2017-Oct-10 05:00N 49°44' W 006°12'714.9
2017-Oct-10 04:31N 49°44' W 006°00'714.5
2017-Oct-10 04:01N 49°45' W 005°49'913.4
2017-Oct-10 03:19N 49°45' W 005°35'612.9
2017-Oct-10 02:50N 49°46' W 005°25'713.4
2017-Oct-10 02:18N 49°47' W 005°14'817.1
2017-Oct-10 01:51N 49°48' W 005°02'617.6
2017-Oct-10 01:31N 49°48' W 004°53'917.6
2017-Oct-10 01:00N 49°49' W 004°39'917.5
2017-Oct-10 00:29N 49°50' W 004°25'917.6
2017-Oct-10 00:00N 49°51' W 004°12'917.6
2017-Oct-09 23:30N 49°52' W 003°59'917.5
2017-Oct-09 22:58N 49°53' W 003°44'817.3
2017-Oct-09 22:30N 49°54' W 003°32'917.4
2017-Oct-09 22:00N 49°57' W 003°19'917.2
2017-Oct-09 21:30N 49°59' W 003°06'917.3
2017-Oct-09 21:01N 50°01' W 002°53'917.0
2017-Oct-09 20:30N 50°03' W 002°40'4717.0
2017-Oct-09 17:45N 50°15' W 001°30'3416.9
2017-Oct-09 15:46N 50°24' W 000°39'516.9
2017-Oct-09 15:29N 50°25' W 000°32'817.0
2017-Oct-09 15:01N 50°27' W 000°19'816.7
2017-Oct-09 14:31N 50°29' W 000°07'816.5
2017-Oct-09 14:01N 50°31' E 000°06'816.5
2017-Oct-09 13:30N 50°34' E 000°18'816.5
2017-Oct-09 13:00N 50°36' E 000°31'816.0
2017-Oct-09 12:31N 50°40' E 000°41'816.5
2017-Oct-09 12:01N 50°45' E 000°51'816.5
2017-Oct-09 11:31N 50°51' E 001°01'816.5
2017-Oct-09 11:01N 50°56' E 001°11'917.7
2017-Oct-09 10:31N 51°01' E 001°22'918.4
2017-Oct-09 10:00N 51°07' E 001°34'816.6
2017-Oct-09 09:31N 51°12' E 001°44'816.3
2017-Oct-09 09:01N 51°19' E 001°50'917.1
2017-Oct-09 08:30N 51°26' E 001°58'815.4
2017-Oct-09 08:01N 51°32' E 002°06'816.8
2017-Oct-09 07:31N 51°39' E 002°15'816.5
2017-Oct-09 07:01N 51°45' E 002°24'816.6
2017-Oct-09 06:30N 51°51' E 002°32'816.6
2017-Oct-09 06:00N 51°58' E 002°41'916.5
2017-Oct-09 05:26N 52°05' E 002°51'816.8
2017-Oct-09 04:58N 52°11' E 002°59'1016.6
2017-Oct-09 04:22N 52°18' E 003°10'2316.5
2017-Oct-09 03:00N 52°37' E 003°30'816.2
2017-Oct-09 02:31N 52°43' E 003°38'816.3
2017-Oct-09 02:00N 52°50' E 003°47'816.6
2017-Oct-09 01:30N 52°56' E 003°56'816.6
2017-Oct-09 01:00N 53°01' E 004°06'816.6
2017-Oct-09 00:31N 53°07' E 004°17'816.1
2017-Oct-09 00:01N 53°13' E 004°25'816.6
2017-Oct-08 23:31N 53°21' E 004°30'916.8
2017-Oct-08 23:00N 53°29' E 004°36'918.1
2017-Oct-08 22:31N 53°32' E 004°50'816.8
2017-Oct-08 22:01N 53°35' E 005°03'816.6
2017-Oct-08 21:30N 53°38' E 005°16'8416.4
2017-Oct-08 16:24N 54°01' E 007°33'716.3
2017-Oct-08 15:58N 54°02' E 007°45'816.5
2017-Oct-08 15:30N 54°01' E 007°58'815.7
2017-Oct-08 15:00N 54°01' E 008°11'816.0
2017-Oct-08 14:30N 53°59' E 008°24'918.1
2017-Oct-08 14:00N 53°56' E 008°39'713.5
2017-Oct-08 13:30N 53°51' E 008°46'612.8
2017-Oct-08 13:00N 53°51' E 008°57'611.9
2017-Oct-08 12:30N 53°53' E 009°06'4 7.7
2017-Oct-08 12:00N 53°53' E 009°13'713.7
2017-Oct-08 11:30N 53°49' E 009°22'612.9
2017-Oct-08 11:01N 53°43' E 009°28'612.7
2017-Oct-08 10:30N 53°38' E 009°32'713.3
2017-Oct-08 10:00N 53°34' E 009°42'510.8
2017-Oct-08 09:30N 53°33' E 009°51'2 4.6
2017-Oct-08 08:59N 53°32' E 009°55'0 0.0
2017-Oct-08 08:29N 53°32' E 009°55'0 0.0
2017-Oct-08 07:59N 53°32' E 009°55'0 0.0
2017-Oct-08 07:29N 53°32' E 009°55'0 0.0
2017-Oct-08 06:59N 53°32' E 009°55'0 0.0
2017-Oct-08 06:29N 53°32' E 009°55'0 0.0
2017-Oct-08 05:59N 53°32' E 009°55'0 0.0
2017-Oct-08 05:29N 53°32' E 009°55'0 0.0
2017-Oct-08 04:59N 53°32' E 009°55'0 0.0
2017-Oct-08 04:29N 53°32' E 009°55'0 0.0
2017-Oct-08 04:00N 53°32' E 009°55'1 2.3
2017-Oct-08 03:31N 53°32' E 009°56'2 3.6
2017-Oct-08 03:01N 53°30' E 009°56'0 0.0
2017-Oct-08 02:26N 53°30' E 009°56'0 0.0
2017-Oct-08 01:59N 53°30' E 009°56'0 0.0
2017-Oct-08 01:29N 53°30' E 009°56'0 0.0
2017-Oct-08 00:59N 53°30' E 009°56'0 0.0
2017-Oct-08 00:29N 53°30' E 009°56'0 0.0
2017-Oct-07 23:59N 53°30' E 009°56'0 0.0
2017-Oct-07 23:29N 53°30' E 009°56'0 0.0
2017-Oct-07 22:59N 53°30' E 009°56'0 0.0
2017-Oct-07 22:29N 53°30' E 009°56'0 0.0
2017-Oct-07 21:59N 53°30' E 009°56'0 0.0
2017-Oct-07 21:29N 53°30' E 009°56'0 0.0
2017-Oct-07 20:59N 53°30' E 009°56'0 0.0
2017-Oct-07 20:29N 53°30' E 009°56'0 0.0
2017-Oct-07 19:59N 53°30' E 009°56'0 0.0
2017-Oct-07 19:29N 53°30' E 009°56'0 0.0
2017-Oct-07 18:59N 53°30' E 009°56'0 0.0
2017-Oct-07 18:29N 53°30' E 009°56'0 0.0
2017-Oct-07 17:59N 53°30' E 009°56'0 0.1
2017-Oct-07 17:29N 53°30' E 009°56'0 0.0
2017-Oct-07 16:59N 53°30' E 009°56'0 0.0
2017-Oct-07 16:29N 53°30' E 009°56'0 0.0
2017-Oct-07 15:59N 53°30' E 009°56'0 0.0
2017-Oct-07 15:29N 53°30' E 009°56'0 0.0
2017-Oct-07 14:59N 53°30' E 009°56'0 0.0
2017-Oct-07 14:29N 53°30' E 009°56'0 0.0
2017-Oct-07 13:59N 53°30' E 009°56'0 0.0
2017-Oct-07 13:29N 53°30' E 009°56'0 0.0
2017-Oct-07 12:59N 53°30' E 009°56'0 0.0
2017-Oct-07 12:29N 53°30' E 009°56'0 0.0
2017-Oct-07 11:59N 53°30' E 009°56'0 0.0
2017-Oct-07 11:29N 53°30' E 009°56'0 0.0
2017-Oct-07 10:56N 53°30' E 009°56'0 0.0
2017-Oct-07 10:29N 53°30' E 009°56'0 0.0
2017-Oct-07 09:59N 53°30' E 009°56'0 0.0
2017-Oct-07 09:29N 53°30' E 009°56'  
Track history (hours):
 
Tides and Currents Weather Stations Pressure Air Temp Water Temp Dewpoint Dewpoint Depression Visibility Wind Speed Wind Dir Waves Ship Positions

Toronto Express

Last reported at 2017-Oct-17 09:10 UTC. Time now 2017-Oct-17 20:58 UTC.
Position N 45°36' W 073°30'.

Length 294 m; draft 10.6 m.

Type: Cargo ship. MMSI: 310749000.

Date/timePositionNaut miles runAvg speedWind from/ knotsBaromVisibWave heightAir tempDewpointWater temp
2017-Oct-17 09:10N 45°36' W 073°30'1 6.8
2017-Oct-17 09:00N 45°38' W 073°30'5 7.7
2017-Oct-17 08:23N 45°42' W 073°27'3 9.1
2017-Oct-17 08:00N 45°45' W 073°24'9 9.5
2017-Oct-17 07:02N 45°52' W 073°16'010.4
2017-Oct-17 07:00N 45°52' W 073°15'  
2017-Oct-10 05:27N 49°43' W 006°23'817.6
2017-Oct-10 05:00N 49°44' W 006°12'714.9
2017-Oct-10 04:31N 49°44' W 006°00'714.5
2017-Oct-10 04:01N 49°45' W 005°49'913.4
2017-Oct-10 03:19N 49°45' W 005°35'612.9
2017-Oct-10 02:50N 49°46' W 005°25'713.4
2017-Oct-10 02:18N 49°47' W 005°14'817.1
2017-Oct-10 01:51N 49°48' W 005°02'617.6
2017-Oct-10 01:31N 49°48' W 004°53'917.6
2017-Oct-10 01:00N 49°49' W 004°39'917.5
2017-Oct-10 00:29N 49°50' W 004°25'917.6
2017-Oct-10 00:00N 49°51' W 004°12'917.6
2017-Oct-09 23:30N 49°52' W 003°59'917.5
2017-Oct-09 22:58N 49°53' W 003°44'817.3
2017-Oct-09 22:30N 49°54' W 003°32'917.4
2017-Oct-09 22:00N 49°57' W 003°19'917.2
2017-Oct-09 21:30N 49°59' W 003°06'917.3
2017-Oct-09 21:01N 50°01' W 002°53'917.0
2017-Oct-09 20:30N 50°03' W 002°40'4717.0
2017-Oct-09 17:45N 50°15' W 001°30'3416.9
2017-Oct-09 15:46N 50°24' W 000°39'516.9
2017-Oct-09 15:29N 50°25' W 000°32'817.0
2017-Oct-09 15:01N 50°27' W 000°19'816.7
2017-Oct-09 14:31N 50°29' W 000°07'816.5
2017-Oct-09 14:01N 50°31' E 000°06'816.5
2017-Oct-09 13:30N 50°34' E 000°18'816.5
2017-Oct-09 13:00N 50°36' E 000°31'816.0
2017-Oct-09 12:31N 50°40' E 000°41'816.5
2017-Oct-09 12:01N 50°45' E 000°51'816.5
2017-Oct-09 11:31N 50°51' E 001°01'816.5
2017-Oct-09 11:01N 50°56' E 001°11'917.7
2017-Oct-09 10:31N 51°01' E 001°22'918.4
2017-Oct-09 10:00N 51°07' E 001°34'816.6
2017-Oct-09 09:31N 51°12' E 001°44'816.3
2017-Oct-09 09:01N 51°19' E 001°50'917.1
2017-Oct-09 08:30N 51°26' E 001°58'815.4
2017-Oct-09 08:01N 51°32' E 002°06'816.8
2017-Oct-09 07:31N 51°39' E 002°15'816.5
2017-Oct-09 07:01N 51°45' E 002°24'816.6
2017-Oct-09 06:30N 51°51' E 002°32'816.6
2017-Oct-09 06:00N 51°58' E 002°41'916.5
2017-Oct-09 05:26N 52°05' E 002°51'816.8
2017-Oct-09 04:58N 52°11' E 002°59'1016.6
2017-Oct-09 04:22N 52°18' E 003°10'2316.5
2017-Oct-09 03:00N 52°37' E 003°30'816.2
2017-Oct-09 02:31N 52°43' E 003°38'816.3
2017-Oct-09 02:00N 52°50' E 003°47'816.6
2017-Oct-09 01:30N 52°56' E 003°56'816.6
2017-Oct-09 01:00N 53°01' E 004°06'816.6
2017-Oct-09 00:31N 53°07' E 004°17'816.1
2017-Oct-09 00:01N 53°13' E 004°25'816.6
2017-Oct-08 23:31N 53°21' E 004°30'916.8
2017-Oct-08 23:00N 53°29' E 004°36'918.1
2017-Oct-08 22:31N 53°32' E 004°50'816.8
2017-Oct-08 22:01N 53°35' E 005°03'816.6
2017-Oct-08 21:30N 53°38' E 005°16'8416.4
2017-Oct-08 16:24N 54°01' E 007°33'716.3
2017-Oct-08 15:58N 54°02' E 007°45'816.5
2017-Oct-08 15:30N 54°01' E 007°58'815.7
2017-Oct-08 15:00N 54°01' E 008°11'816.0
2017-Oct-08 14:30N 53°59' E 008°24'918.1
2017-Oct-08 14:00N 53°56' E 008°39'713.5
2017-Oct-08 13:30N 53°51' E 008°46'612.8
2017-Oct-08 13:00N 53°51' E 008°57'611.9
2017-Oct-08 12:30N 53°53' E 009°06'4 7.7
2017-Oct-08 12:00N 53°53' E 009°13'713.7
2017-Oct-08 11:30N 53°49' E 009°22'612.9
2017-Oct-08 11:01N 53°43' E 009°28'612.7
2017-Oct-08 10:30N 53°38' E 009°32'713.3
2017-Oct-08 10:00N 53°34' E 009°42'510.8
2017-Oct-08 09:30N 53°33' E 009°51'2 4.6
2017-Oct-08 08:59N 53°32' E 009°55'0 0.0
2017-Oct-08 08:29N 53°32' E 009°55'0 0.0
2017-Oct-08 07:59N 53°32' E 009°55'0 0.0
2017-Oct-08 07:29N 53°32' E 009°55'0 0.0
2017-Oct-08 06:59N 53°32' E 009°55'0 0.0
2017-Oct-08 06:29N 53°32' E 009°55'0 0.0
2017-Oct-08 05:59N 53°32' E 009°55'0 0.0
2017-Oct-08 05:29N 53°32' E 009°55'0 0.0
2017-Oct-08 04:59N 53°32' E 009°55'0 0.0
2017-Oct-08 04:29N 53°32' E 009°55'0 0.0
2017-Oct-08 04:00N 53°32' E 009°55'1 2.3
2017-Oct-08 03:31N 53°32' E 009°56'2 3.6
2017-Oct-08 03:01N 53°30' E 009°56'0 0.0
2017-Oct-08 02:26N 53°30' E 009°56'0 0.0
2017-Oct-08 01:59N 53°30' E 009°56'0 0.0
2017-Oct-08 01:29N 53°30' E 009°56'0 0.0
2017-Oct-08 00:59N 53°30' E 009°56'0 0.0
2017-Oct-08 00:29N 53°30' E 009°56'0 0.0
2017-Oct-07 23:59N 53°30' E 009°56'0 0.0
2017-Oct-07 23:29N 53°30' E 009°56'0 0.0
2017-Oct-07 22:59N 53°30' E 009°56'0 0.0
2017-Oct-07 22:29N 53°30' E 009°56'0 0.0
2017-Oct-07 21:59N 53°30' E 009°56'0 0.0
2017-Oct-07 21:29N 53°30' E 009°56'0 0.0
2017-Oct-07 20:59N 53°30' E 009°56'0 0.0
2017-Oct-07 20:29N 53°30' E 009°56'0 0.0
2017-Oct-07 19:59N 53°30' E 009°56'0 0.0
2017-Oct-07 19:29N 53°30' E 009°56'0 0.0
2017-Oct-07 18:59N 53°30' E 009°56'0 0.0
2017-Oct-07 18:29N 53°30' E 009°56'0 0.0
2017-Oct-07 17:59N 53°30' E 009°56'0 0.1
2017-Oct-07 17:29N 53°30' E 009°56'0 0.0
2017-Oct-07 16:59N 53°30' E 009°56'0 0.0
2017-Oct-07 16:29N 53°30' E 009°56'0 0.0
2017-Oct-07 15:59N 53°30' E 009°56'0 0.0
2017-Oct-07 15:29N 53°30' E 009°56'0 0.0
2017-Oct-07 14:59N 53°30' E 009°56'0 0.0
2017-Oct-07 14:29N 53°30' E 009°56'0 0.0
2017-Oct-07 13:59N 53°30' E 009°56'0 0.0
2017-Oct-07 13:29N 53°30' E 009°56'0 0.0
2017-Oct-07 12:59N 53°30' E 009°56'0 0.0
2017-Oct-07 12:29N 53°30' E 009°56'0 0.0
2017-Oct-07 11:59N 53°30' E 009°56'0 0.0
2017-Oct-07 11:29N 53°30' E 009°56'0 0.0
2017-Oct-07 10:56N 53°30' E 009°56'0 0.0
2017-Oct-07 10:29N 53°30' E 009°56'0 0.0
2017-Oct-07 09:59N 53°30' E 009°56'0 0.0
2017-Oct-07 09:29N 53°30' E 009°56'  

Dump ship's entire track history